Time;durP1;ratioP1;P1;durP2;ratioP2;P2;SDS_P1;SDS_P2;PMS_P1;PMS_P2;Temp;Humidity;BMP_temperature;BMP_pressure;BME280_temperature;BME280_humidity;BME280_pressure;Samples;Min_cycle;Max_cycle;Signal;HPM_P1;HPM_P2
2022/06/23 00:02:15;;;;;;;;;5.33;5.33;;;;;17.70;74.23;99883.44;5017309;28;45458;-71
2022/06/23 00:04:44;;;;;;;;;5.33;4.33;;;;;17.84;74.65;99897.41;5017622;28;45887;-68
2022/06/23 00:07:20;;;;;;;;;5.33;4.67;;;;;17.70;74.43;99868.44;5017151;28;46216;-69
2022/06/23 00:09:45;;;;;;;;;3.67;3.67;;;;;17.89;74.48;99886.81;5017001;28;45552;-69
2022/06/23 00:12:19;;;;;;;;;4.33;4.33;;;;;17.91;74.24;99889.44;5017460;28;45530;-69
2022/06/23 00:15:16;;;;;;;;;4.00;4.00;;;;;17.90;73.95;99893.84;5017559;28;45465;-69
2022/06/23 00:17:54;;;;;;;;;4.00;4.00;;;;;17.77;74.15;99871.06;5017376;28;45491;-69
2022/06/23 00:20:23;;;;;;;;;5.00;4.33;;;;;17.88;73.83;99898.25;4999214;28;45300;-69
2022/06/23 00:22:58;;;;;;;;;4.67;3.67;;;;;17.83;74.01;99889.50;5017237;28;45419;-69
2022/06/23 00:26:02;;;;;;;;;3.67;3.67;;;;;17.83;74.01;99890.38;5017387;28;45507;-73
2022/06/23 00:28:34;;;;;;;;;6.67;4.67;;;;;17.84;73.64;99884.19;4936182;28;45576;-70
2022/06/23 00:31:05;;;;;;;;;4.33;3.33;;;;;17.64;73.79;99843.88;5005358;28;45372;-69
2022/06/23 00:33:41;;;;;;;;;4.33;4.33;;;;;17.84;74.13;99878.91;5016958;28;45396;-70
2022/06/23 00:36:25;;;;;;;;;4.67;3.67;;;;;17.83;74.09;99878.91;5017223;28;45439;-68
2022/06/23 00:38:51;;;;;;;;;4.67;4.67;;;;;17.75;73.33;99854.34;5016816;28;46310;-69
2022/06/23 00:41:22;;;;;;;;;3.67;3.33;;;;;17.67;74.23;99851.78;4998856;28;45631;-69
2022/06/23 00:43:50;;;;;;;;;4.67;4.67;;;;;17.58;74.61;99847.44;5017174;28;45367;-69
2022/06/23 00:46:28;;;;;;;;;3.67;3.67;;;;;17.57;74.40;99852.78;5019705;28;45368;-70
2022/06/23 00:49:08;;;;;;;;;5.00;3.67;;;;;17.50;74.95;99838.72;5020258;28;45499;-71
2022/06/23 00:51:45;;;;;;;;;6.00;5.00;;;;;17.57;74.44;99853.63;5020222;28;45365;-69
2022/06/23 00:54:24;;;;;;;;;3.67;3.67;;;;;17.66;74.92;99855.31;5020509;28;45388;-69
2022/06/23 00:57:13;;;;;;;;;3.67;3.67;;;;;17.63;74.05;99856.22;5002603;28;45262;-70
2022/06/23 00:59:47;;;;;;;;;4.33;4.33;;;;;17.46;74.26;99829.09;5020363;28;46151;-69
2022/06/23 01:02:19;;;;;;;;;5.00;5.00;;;;;17.52;75.44;99847.50;5020588;28;45297;-68
2022/06/23 01:04:59;;;;;;;;;5.67;4.67;;;;;17.51;75.59;99837.84;5020459;28;45510;-68
2022/06/23 01:07:44;;;;;;;;;4.00;4.00;;;;;17.53;75.83;99837.81;5019030;28;45391;-72
2022/06/23 01:10:44;;;;;;;;;4.67;4.67;;;;;17.57;75.65;99827.22;5020020;28;45406;-69
2022/06/23 01:13:37;;;;;;;;;5.00;5.00;;;;;17.50;75.36;99823.75;5020241;28;45428;-71
2022/06/23 01:16:09;;;;;;;;;4.67;4.00;;;;;17.58;75.43;99828.97;5018671;28;45400;-72
2022/06/23 01:18:49;;;;;;;;;4.00;4.00;;;;;17.40;75.63;99797.47;5020292;28;45431;-70
2022/06/23 01:21:36;;;;;;;;;5.00;4.00;;;;;17.51;75.73;99814.09;5020041;28;46186;-68
2022/06/23 01:24:20;;;;;;;;;5.67;5.00;;;;;17.46;76.01;99811.47;5019744;28;45470;-68
2022/06/23 01:27:28;;;;;;;;;4.67;4.00;;;;;17.38;76.08;99817.72;5020272;28;45448;-68
2022/06/23 01:30:05;;;;;;;;;3.00;3.00;;;;;17.30;76.44;99805.47;4982436;28;45462;-73
2022/06/23 01:32:40;;;;;;;;;6.00;5.67;;;;;17.28;76.64;99809.88;5019700;28;46104;-68
2022/06/23 01:35:14;;;;;;;;;5.00;5.00;;;;;17.16;76.48;99799.44;5019578;28;45415;-69
2022/06/23 01:37:52;;;;;;;;;6.00;5.00;;;;;17.15;76.85;99803.00;5019741;28;45467;-70
2022/06/23 01:40:23;;;;;;;;;5.67;4.00;;;;;17.15;76.90;99805.63;5019984;28;45467;-69
2022/06/23 01:42:57;;;;;;;;;6.00;4.67;;;;;17.13;77.11;99810.03;5019259;28;45577;-70
2022/06/23 01:45:56;;;;;;;;;6.00;5.00;;;;;17.10;77.03;99812.69;5001294;28;45391;-70
2022/06/23 01:48:51;;;;;;;;;7.00;6.00;;;;;17.01;76.80;99795.19;5018327;28;45460;-69
2022/06/23 01:51:53;;;;;;;;;5.00;5.00;;;;;17.03;77.07;99808.34;5019929;28;45326;-70
2022/06/23 01:54:25;;;;;;;;;5.00;5.00;;;;;17.07;77.03;99802.19;5014558;28;46187;-72
2022/06/23 01:57:28;;;;;;;;;5.00;5.00;;;;;17.08;76.94;99798.63;5018834;28;45461;-69
2022/06/23 02:00:08;;;;;;;;;5.00;5.00;;;;;17.02;76.84;99785.50;5019350;28;45456;-69
2022/06/23 02:02:43;;;;;;;;;5.33;5.00;;;;;17.03;76.79;99790.78;5019485;28;45296;-70
2022/06/23 02:05:26;;;;;;;;;3.00;3.00;;;;;16.40;76.99;99688.38;5019029;28;45325;-69
2022/06/23 02:08:04;;;;;;;;;4.00;4.00;;;;;17.04;76.88;99783.72;5018944;28;45245;-71
2022/06/23 02:10:47;;;;;;;;;7.00;6.00;;;;;16.82;77.04;99749.59;5019232;28;45529;-69
2022/06/23 02:13:35;;;;;;;;;5.00;5.00;;;;;17.00;77.09;99768.81;5019350;28;45316;-69
2022/06/23 02:16:19;;;;;;;;;6.00;6.00;;;;;17.00;76.96;99774.09;5018883;28;45757;-70
2022/06/23 02:18:55;;;;;;;;;5.00;5.00;;;;;16.85;77.18;99759.25;5019159;28;45513;-70
2022/06/23 02:21:44;;;;;;;;;8.33;5.00;;;;;16.81;76.33;99766.34;5018814;28;45493;-69
2022/06/23 02:24:32;;;;;;;;;6.00;5.00;;;;;16.83;76.96;99782.13;5018959;28;45538;-68
2022/06/23 02:27:19;;;;;;;;;5.00;5.00;;;;;16.67;77.48;99763.78;5018712;28;45341;-70
2022/06/23 02:30:00;;;;;;;;;4.00;4.00;;;;;16.77;77.72;99783.03;5019144;28;45514;-69
2022/06/23 02:32:25;;;;;;;;;5.67;5.00;;;;;16.76;77.37;99786.53;5018898;28;45393;-70
2022/06/23 02:35:14;;;;;;;;;5.00;5.00;;;;;16.65;77.57;99765.53;5018755;28;45308;-69
2022/06/23 02:37:58;;;;;;;;;4.00;4.00;;;;;16.72;77.64;99779.56;5018749;28;45486;-69
2022/06/23 02:40:35;;;;;;;;;6.00;5.33;;;;;16.64;77.24;99770.81;5018368;28;45447;-70
2022/06/23 02:43:31;;;;;;;;;6.00;4.00;;;;;16.70;77.58;99778.69;5018777;28;45355;-70
2022/06/23 02:46:18;;;;;;;;;5.00;5.00;;;;;16.68;77.16;99768.13;5018921;28;45331;-69
2022/06/23 02:49:11;;;;;;;;;4.00;4.00;;;;;16.62;76.99;99764.69;5018573;28;45522;-69
2022/06/23 02:51:57;;;;;;;;;5.00;5.00;;;;;16.61;77.42;99766.47;5018462;28;45493;-69
2022/06/23 02:54:46;;;;;;;;;4.33;4.00;;;;;16.62;77.24;99767.31;5018551;28;45214;-68
2022/06/23 02:57:34;;;;;;;;;5.67;5.33;;;;;16.62;77.24;99762.06;5018675;28;45477;-72
2022/06/23 03:00:15;;;;;;;;;4.00;4.00;;;;;16.60;76.84;99759.41;5016014;28;46683;-69
2022/06/23 03:03:08;;;;;;;;;6.00;5.00;;;;;16.42;76.83;99734.06;5018313;28;45210;-71
2022/06/23 03:05:40;;;;;;;;;4.00;4.00;;;;;16.52;77.04;99749.81;5018377;28;45264;-70
2022/06/23 03:08:43;;;;;;;;;3.33;3.33;;;;;16.40;77.25;99748.13;5017465;28;45355;-69
2022/06/23 03:11:54;;;;;;;;;3.00;3.00;;;;;16.48;77.17;99772.69;5018152;28;45436;-69
2022/06/23 03:14:39;;;;;;;;;3.33;3.00;;;;;16.46;77.18;99771.81;5018462;28;45480;-69
2022/06/23 03:17:33;;;;;;;;;6.00;6.00;;;;;16.44;77.31;99777.09;5018240;28;45440;-69
2022/06/23 03:20:11;;;;;;;;;4.67;4.67;;;;;16.37;77.56;99767.47;5017949;28;45472;-68
2022/06/23 03:22:44;;;;;;;;;4.33;4.00;;;;;16.43;76.48;99771.81;5017936;28;45453;-69
2022/06/23 03:25:23;;;;;;;;;5.00;5.00;;;;;16.48;76.65;99785.88;5018029;28;46145;-69
2022/06/23 03:28:03;;;;;;;;;4.00;4.00;;;;;16.37;77.25;99753.41;5018312;28;45450;-68
2022/06/23 03:30:53;;;;;;;;;5.00;4.33;;;;;16.39;76.98;99747.25;5017953;28;45308;-70
2022/06/23 03:33:40;;;;;;;;;4.33;4.33;;;;;16.53;76.65;99762.09;5018041;28;45422;-69
2022/06/23 03:36:28;;;;;;;;;5.00;5.00;;;;;16.34;76.21;99725.31;5017812;28;45715;-68
2022/06/23 03:42:23;;;;;;;;;7.00;7.00;;;;;16.61;76.68;99739.19;5018252;28;45313;-68
2022/06/23 03:45:03;;;;;;;;;6.00;5.00;;;;;16.66;76.34;99745.31;5017933;28;45309;-69
2022/06/23 03:47:31;;;;;;;;;5.00;5.00;;;;;16.80;76.66;99758.41;5017659;28;45748;-71
2022/06/23 03:50:04;;;;;;;;;4.33;4.33;;;;;16.69;76.25;99725.06;5017640;28;45354;-69
2022/06/23 03:52:44;;;;;;;;;5.67;5.00;;;;;16.89;76.03;99746.03;5018000;28;45425;-70
2022/06/23 03:55:27;;;;;;;;;4.00;3.00;;;;;16.93;75.42;99752.16;5017517;28;45524;-70
2022/06/23 03:58:02;;;;;;;;;4.00;4.00;;;;;16.88;75.43;99732.84;5017796;28;45569;-70
2022/06/23 04:00:43;;;;;;;;;5.00;5.00;;;;;16.77;75.62;99730.28;5017459;28;45419;-70
2022/06/23 04:03:26;;;;;;;;;4.00;4.00;;;;;16.89;76.03;99740.75;5017654;28;45460;-70
2022/06/23 04:05:54;;;;;;;;;5.00;5.00;;;;;16.93;75.97;99746.00;5017466;28;45468;-69
2022/06/23 04:08:29;;;;;;;;;4.00;4.00;;;;;16.96;76.00;99752.13;5017544;28;45332;-68
2022/06/23 04:11:43;;;;;;;;;6.00;4.33;;;;;16.92;75.60;99742.50;4999626;28;45546;-68
2022/06/23 04:13:55;;;;;;;;;6.00;6.00;;;;;16.97;75.52;99737.16;5023808;28;45503;-69
2022/06/23 04:16:24;;;;;;;;;4.00;4.00;;;;;17.07;75.30;99752.03;5025568;28;46184;-68
2022/06/23 04:18:52;;;;;;;;;5.00;4.00;;;;;17.10;75.31;99746.72;5025897;28;45493;-72
2022/06/23 04:21:25;;;;;;;;;4.67;4.00;;;;;17.24;75.17;99765.94;5027104;28;46133;-68
2022/06/23 04:23:54;;;;;;;;;4.33;4.00;;;;;17.24;74.94;99755.38;5027502;28;45490;-68
2022/06/23 04:26:32;;;;;;;;;4.67;4.67;;;;;17.23;75.02;99752.75;5027025;28;46026;-73
2022/06/23 04:29:20;;;;;;;;;4.00;3.67;;;;;17.36;75.15;99770.22;5018489;28;45391;-68
2022/06/23 04:32:01;;;;;;;;;3.00;3.00;;;;;17.38;74.55;99770.22;5017192;28;45575;-67
2022/06/23 04:34:31;;;;;;;;;4.33;4.33;;;;;17.37;74.88;99768.44;5017578;28;45461;-69
2022/06/23 04:36:57;;;;;;;;;4.00;4.00;;;;;17.32;74.40;99759.72;5017175;28;46037;-68
2022/06/23 04:39:38;;;;;;;;;4.67;4.67;;;;;17.35;74.94;99770.22;5017036;28;45366;-71
2022/06/23 04:42:19;;;;;;;;;5.00;5.00;;;;;17.25;74.70;99754.50;5016883;28;45568;-72
2022/06/23 04:44:52;;;;;;;;;5.00;4.00;;;;;17.35;74.71;99780.78;5017294;28;45280;-73
2022/06/23 04:47:22;;;;;;;;;6.33;5.00;;;;;17.33;74.75;99783.47;5035178;28;45570;-73
2022/06/23 04:49:54;;;;;;;;;5.67;4.00;;;;;17.32;74.96;99780.84;5031949;28;45315;-73
2022/06/23 04:52:31;;;;;;;;;6.00;6.00;;;;;17.20;75.11;99751.03;5023075;28;45546;-72
2022/06/23 04:55:04;;;;;;;;;6.00;5.00;;;;;17.48;74.89;99792.97;5005438;28;45453;-71
2022/06/23 04:58:01;;;;;;;;;4.00;4.00;;;;;17.47;74.84;99781.56;5035539;28;45534;-73
2022/06/23 05:00:36;;;;;;;;;4.33;4.33;;;;;17.59;74.64;99796.41;5017214;28;45429;-72
2022/06/23 05:03:17;;;;;;;;;3.67;3.67;;;;;17.47;74.57;99786.84;5035557;28;45533;-72
2022/06/23 05:05:43;;;;;;;;;3.67;3.67;;;;;17.56;74.41;99790.25;5034850;28;45596;-71
2022/06/23 05:08:25;;;;;;;;;5.00;4.33;;;;;17.68;74.07;99811.25;5036246;28;45871;-71
2022/06/23 05:11:17;;;;;;;;;3.00;3.00;;;;;17.65;74.37;99811.31;5036552;28;45467;-67
2022/06/23 05:13:50;;;;;;;;;5.67;4.67;;;;;17.58;74.16;99799.91;5029469;28;45503;-67
2022/06/23 05:16:40;;;;;;;;;4.67;3.67;;;;;17.63;74.19;99800.75;5017504;28;45498;-68
2022/06/23 05:19:35;;;;;;;;;4.67;4.67;;;;;17.73;74.52;99808.59;5035462;28;45517;-68
2022/06/23 05:22:20;;;;;;;;;5.67;5.00;;;;;17.64;74.64;99784.00;5032456;28;45551;-68
2022/06/23 05:24:47;;;;;;;;;5.00;4.67;;;;;17.85;74.35;99804.06;5032791;28;45447;-67
2022/06/23 05:27:21;;;;;;;;;5.00;5.00;;;;;17.87;74.75;99801.41;5035610;28;45411;-67
2022/06/23 05:30:20;;;;;;;;;6.00;4.67;;;;;17.90;75.10;99809.28;5029662;28;45480;-68
2022/06/23 05:32:52;;;;;;;;;4.67;4.67;;;;;17.98;74.66;99798.63;5032598;28;45402;-67
2022/06/23 05:35:32;;;;;;;;;4.33;4.33;;;;;17.94;74.63;99773.13;5037496;28;45590;-69
2022/06/23 05:38:06;;;;;;;;;4.67;4.00;;;;;18.06;74.28;99780.88;5020138;28;45544;-69
2022/06/23 05:40:49;;;;;;;;;4.00;4.00;;;;;18.23;74.15;99807.13;5037947;28;46253;-70
2022/06/23 05:43:17;;;;;;;;;5.00;5.00;;;;;18.12;74.12;99783.44;5038309;28;45464;-71
2022/06/23 05:45:46;;;;;;;;;6.00;5.00;;;;;18.30;74.17;99800.84;5039881;28;45287;-70
2022/06/23 05:48:20;;;;;;;;;4.67;4.67;;;;;18.37;74.03;99806.94;5037302;28;45526;-70
